Home > Products > Valid Products > MTR

000
SAUS44 KLIX 240152
MTRBVE
METAR KBVE 240151Z AUTO 20005KT 10SM 26/22 A3001 RMK AO2 SLP161
T02610222 $





000
SAUS44 KLIX 240052
MTRBVE
METAR KBVE 240051Z AUTO 20005KT 10SM 27/23 A2999 RMK AO2 RAE2359
SLP155 P0000 T02670228 $





000
SAUS44 KLIX 232352
MTRBVE
METAR KBVE 232351Z AUTO 00000KT 9SM -RA 27/23 A2997 RMK AO2 RAB45
SLP149 P0000 60000 T02720228 10283 20250 55015 $





000
SAUS44 KLIX 232252
MTRBVE
METAR KBVE 232251Z AUTO VRB03KT 10SM 28/22 A2997 RMK AO2 SLP147
T02780222





000
SAUS44 KLIX 232052
MTRBVE
METAR KBVE 232051Z AUTO 21004KT 10SM 28/22 A3002 RMK AO2 SLP164
T02780217 56024





000
SAUS44 KLIX 231953
MTRBVE
METAR KBVE 231951Z AUTO 21005KT 10SM 27/22 A3003 RMK AO2 SLP168
T02720222





000
SAUS44 KLIX 231852
MTRBVE
METAR KBVE 231851Z AUTO 14005KT 10SM 27/22 A3005 RMK AO2 SLP174
T02670222 $





000
SAUS44 KLIX 231752
MTRBVE
METAR KBVE 231751Z AUTO 00000KT 10SM SCT009 BKN100 25/23 A3009 RMK
AO2 RAE36 SLP188 P0003 60058 T02500228 10278 20228 50004





000
SAUS44 KLIX 231652
MTRBVE
METAR KBVE 231651Z AUTO 14005KT 4SM RA BR OVC100 24/22 A3009 RMK AO2
RAB1554E03B06 SLP189 P0006 T02390222





000
SAUS44 KLIX 231606
MTRBVE
SPECI KBVE 231604Z AUTO 17007KT 10SM SCT008 BKN100 BKN120 24/23
A3009 RMK AO2 RAB1554E03 P0000 T02440228





000
SAUS44 KLIX 231552
MTRBVE
METAR KBVE 231551Z AUTO 18007KT 8SM BKN012 BKN085 BKN100 24/23 A3009
RMK AO2 RAE41 SLP187 P0006 T02390228





000
SAUS44 KLIX 231514
MTRBVE
SPECI KBVE 231513Z AUTO 18005KT 4SM RA BR FEW080 BKN100 OVC120 24/23
A3009 RMK AO2 P0005 T02390228





000
SAUS44 KLIX 231505
MTRBVE
SPECI KBVE 231504Z AUTO 18006KT 2 1/2SM RA BR FEW055 SCT080 BKN095
24/22 A3009 RMK AO2 P0003 T02390222





000
SAUS44 KLIX 231453
MTRBVE
METAR KBVE 231451Z AUTO 23011G16KT 7SM -RA FEW090 BKN110 24/22 A3008
RMK AO2 WSHFT 1351 RAB1358 SLP185 P0043 60043 T02390217 51015





000
SAUS44 KLIX 231428
MTRBVE
SPECI KBVE 231426Z AUTO 14006KT 3SM RA BR FEW018 BKN035 OVC100 23/21
A3007 RMK AO2 WSHFT 1351 RAB1358 P0042 T02280211





000
SAUS44 KLIX 231421
MTRBVE
SPECI KBVE 231419Z AUTO 14005G16KT 1SM +RA BR FEW018 BKN032 OVC060
23/22 A3006 RMK AO2 WSHFT 1351 RAB1358 P0041 T02280217





000
SAUS44 KLIX 231412
MTRBVE
SPECI KBVE 231411Z AUTO 15011G22KT 1/2SM +RA FG FEW018 OVC028 23/22
A3007 RMK AO2 WSHFT 1351 RAB1358 P0024 T02280222





000
SAUS44 KLIX 231401
MTRBVE
SPECI KBVE 231401Z AUTO 19018G25KT 1 1/2SM +RA BR SCT019 OVC028
23/22 A3006 RMK AO2 RAB1358 P0002 T02330217





000
SAUS44 KLIX 231353
MTRBVE
METAR KBVE 231351Z AUTO 16010G17KT 110V180 10SM BKN028 OVC037 27/23
A3007 RMK AO2 SLP182 T02670228





000
SAUS44 KLIX 231320
MTRBVE
SPECI KBVE 231319Z AUTO 03005KT 10SM BKN028 BKN033 27/24 A3005 RMK
AO2 T02720239





000
SAUS44 KLIX 231252
MTRBVE
METAR KBVE 231251Z AUTO 00000KT 10SM FEW120 27/24 A3005 RMK AO2
SLP174 T02720239





000
SAUS44 KLIX 231152
MTRBVE
METAR KBVE 231151Z AUTO 18003KT 10SM BKN120 27/24 A3003 RMK AO2
SLP170 7//// T02670244 10267 20244 53008





000
SAUS44 KLIX 231118
MTRBVE
SPECI KBVE 231117Z AUTO 19004KT 10SM SCT026 26/24 A3003 RMK AO2
T02610244





000
SAUS44 KLIX 231052
MTRBVE
METAR KBVE 231051Z AUTO 18003KT 10SM BKN027 27/24 A3002 RMK AO2
SLP167 T02670239





000
SAUS44 KLIX 231016
MTRBVE
SPECI KBVE 231015Z AUTO 19004KT 10SM FEW018 SCT026 26/24 A3002 RMK
AO2 T02610244





000
SAUS44 KLIX 230952
MTRBVE
METAR KBVE 230951Z AUTO 00000KT 10SM BKN019 BKN026 26/25 A3001 RMK
AO2 SLP162 T02610250





000
SAUS44 KLIX 230947
MTRBVE
SPECI KBVE 230946Z AUTO 00000KT 10SM BKN019 26/24 A3001 RMK AO2





000
SAUS44 KLIX 230852
MTRBVE
METAR KBVE 230851Z AUTO 19004KT 10SM CLR 26/24 A3000 RMK AO2 SLP157
T02610244 58007





000
SAUS44 KLIX 230752
MTRBVE
METAR KBVE 230751Z AUTO 12003KT 10SM CLR 26/24 A3001 RMK AO2 SLP161
T02560239





000
SAUS44 KLIX 230652
MTRBVE
METAR KBVE 230651Z AUTO 00000KT 10SM CLR 26/24 A3001 RMK AO2 SLP163
T02610239





000
SAUS44 KLIX 230553
MTRBVE
METAR KBVE 230551Z AUTO 00000KT 10SM CLR 26/23 A3002 RMK AO2 SLP164
T02610233 10272 20250 403110239 58006





000
SAUS44 KLIX 230452
MTRBVE
METAR KBVE 230451Z AUTO 14003KT 10SM CLR 26/22 A3004 RMK AO2 SLP171
T02560222





000
SAUS44 KLIX 230352
MTRBVE
METAR KBVE 230351Z AUTO 12004KT 10SM CLR 26/22 A3004 RMK AO2 SLP173
T02610222





000
SAUS44 KLIX 230352
MTRBVE
METAR KBVE 230351Z AUTO 12004KT 10SM CLR 26/22 A3004 RMK AO2 SLP173
T02610222





000
SAUS44 KLIX 230252
MTRBVE
METAR KBVE 230251Z AUTO 14005KT 10SM CLR 26/23 A3004 RMK AO2 SLP170
T02610228 51012





000
SAUS44 KLIX 230153
MTRBVE
METAR KBVE 230151Z AUTO 14004KT 10SM CLR 26/23 A3003 RMK AO2 SLP167
T02560233





000
SAUS44 KLIX 230107
MTRBVE
SPECI KBVE 230105Z AUTO 02004KT 10SM FEW002 27/23 A3001 RMK AO2
T02670228





000
SAUS44 KLIX 230052
MTRBVE
METAR KBVE 230051Z AUTO 03004KT 10SM CLR 27/23 A3001 RMK AO2 SLP163
T02670228





000
SAUS44 KLIX 222352
MTRBVE
METAR KBVE 222351Z AUTO 00000KT 10SM CLR 27/23 A3000 RMK AO2 RAE01
SLP158 P0000 60278 T02670228 10311 20239 58004





000
SAUS44 KLIX 222252
MTRBVE
METAR KBVE 222251Z AUTO 00000KT 6SM -RA FEW025 OVC100 25/22 A3000
RMK AO2 SLP160 P0000 T02500222





000
SAUS44 KLIX 222224
MTRBVE
SPECI KBVE 222222Z AUTO VRB03KT 10SM -RA FEW070 OVC085 24/22 A3002
RMK AO2 P0000 T02440222





000
SAUS44 KLIX 222200
MTRBVE
SPECI KBVE 222159Z AUTO 15006KT 2 1/2SM -RA SCT023 BKN070 OVC080
24/22 A3002 RMK AO2 P0000 T02440217





000
SAUS44 KLIX 222152
MTRBVE
SPECI KBVE 222150Z AUTO 16010KT 3SM -RA BKN016 BKN070 OVC085 25/22
A3002 RMK AO2 P0000 T02500217





000
SAUS44 KLIX 222148
MTRBVE
METAR KBVE 222147Z AUTO 13008KT 1 1/4SM RA BKN018 BKN065 OVC085
26/22 A3001 RMK AO2 RAB2054 SLP163 P0278 T02560217





000
SAUS44 KLIX 222141
MTRBVE
SPECI KBVE 222140Z AUTO 15007G22KT 1/4SM +RA VV015 24/22 A3001 RMK
AO2 RAB2054 PRESFR P0270 T02440217





000
SAUS44 KLIX 222136
MTRBVE
SPECI KBVE 222135Z AUTO 12016G22KT 1/4SM +RA FG VV009 24/22 A3003
RMK AO2 RAB2054 P0244 T02390217





000
SAUS44 KLIX 222120
MTRBVE
SPECI KBVE 222119Z AUTO 16010KT 1/4SM +RA FG BKN010 OVC028 24/23
A3003 RMK AO2 RAB2054 P0098 T02440228





000
SAUS44 KLIX 222113
MTRBVE
SPECI KBVE 222112Z AUTO 12011KT 1/4SM +RA FG BKN017 BKN028 OVC035
24/23 A3003 RMK AO2 RAB2054 P0034 T02440228





000
SAUS44 KLIX 222107
MTRBVE
SPECI KBVE 222105Z AUTO 08015KT 1 1/2SM +RA BKN028 OVC035 25/22
A3002 RMK AO2 RAB2054 P0004 T02500222





000
SAUS44 KLIX 222052
MTRBVE
METAR KBVE 222051Z AUTO 06015G20KT 10SM BKN027 OVC035 26/22 A3001
RMK AO2 SLP163 T02560217 55009





000
SAUS44 KLIX 221953
MTRBVE
METAR KBVE 221951Z AUTO VRB03KT 10SM BKN029 30/24 A3000 RMK AO2
SLP160 T03000239





000
SAUS44 KLIX 221852
MTRBVE
METAR KBVE 221851Z AUTO 19008KT 10SM CLR 31/23 A3003 RMK AO2 SLP169
T03060233





000
SAUS44 KLIX 221752
MTRBVE
METAR KBVE 221751Z AUTO 16006KT 10SM FEW085 31/23 A3004 RMK AO2
SLP172 6//// T03060228 10311 20256





000
SAUS44 KLIX 221652
MTRBVE
METAR KBVE 221651Z AUTO VRB03KT 10SM SCT055 30/22 A3005 RMK AO2
SLP175 T03000217





000
SAUS44 KLIX 221552
MTRBVE
METAR KBVE 221551Z AUTO VRB03KT 10SM FEW080 30/22 A3005 RMK AO2
SLP174 T03000222





000
SAUS44 KLIX 221452
MTRBVE
METAR KBVE 221451Z AUTO VRB03KT 10SM CLR 29/22 A3003 RMK AO2 SLP169
T02890217 50003





000
SAUS44 KLIX 221359
MTRBVE
SPECI KBVE 221358Z AUTO 00000KT 9SM FEW002 FEW018 29/24 A3004 RMK
AO2 T02890239





000
SAUS44 KLIX 221352
MTRBVE
METAR KBVE 221351Z AUTO 00000KT 8SM CLR 28/24 A3004 RMK AO2 SLP172
T02830244





000
SAUS44 KLIX 221311
MTRBVE
SPECI KBVE 221310Z AUTO 00000KT 6SM HZ FEW003 28/24 A3004 RMK AO2
T02830244





000
SAUS44 KLIX 221253
MTRBVE
METAR KBVE 221251Z AUTO 00000KT 6SM HZ CLR 28/25 A3004 RMK AO2
SLP171 T02780250





000
SAUS44 KLIX 221210
MTRBVE
SPECI KBVE 221209Z AUTO 00000KT 4SM BR CLR 26/25 A3003 RMK AO2
T02610250





000
SAUS44 KLIX 221200
MTRBVE
SPECI KBVE 221159Z AUTO 00000KT 2 1/2SM BR CLR 26/25 A3002 RMK AO2
T02560250





000
SAUS44 KLIX 221152
MTRBVE
METAR KBVE 221151Z AUTO 00000KT 3SM BR CLR 26/25 A3002 RMK AO2
SLP166 7//// T02560250 10267 20250 53013





000
SAUS44 KLIX 221143
MTRBVE
SPECI KBVE 221142Z AUTO 00000KT 4SM BR CLR 26/25 A3002 RMK AO2
T02560250





000
SAUS44 KLIX 221134
MTRBVE
SPECI KBVE 221133Z AUTO 00000KT 2SM BR CLR 26/25 A3002 RMK AO2
T02610250





000
SAUS44 KLIX 221052
MTRBVE
METAR KBVE 221051Z AUTO 00000KT 5SM BR CLR 26/24 A3001 RMK AO2
SLP163 T02560244





000
SAUS44 KLIX 220952
MTRBVE
METAR KBVE 220951Z AUTO 00000KT 5SM BR CLR 26/24 A2999 RMK AO2
SLP155 T02560244





000
SAUS44 KLIX 220852
MTRBVE
METAR KBVE 220851Z AUTO 00000KT 7SM CLR 26/24 A2998 RMK AO2 SLP153
T02610239 56009





000
SAUS44 KLIX 220753
MTRBVE
METAR KBVE 220751Z AUTO 00000KT 6SM BR CLR 26/24 A2999 RMK AO2
SLP155 T02610244





000
SAUS44 KLIX 220652
MTRBVE
METAR KBVE 220651Z AUTO 00000KT 7SM CLR 27/24 A2999 RMK AO2 SLP156
T02670244





000
SAUS44 KLIX 220552
MTRBVE
METAR KBVE 220551Z AUTO 23004KT 8SM CLR 27/24 A3001 RMK AO2 SLP162
T02670244 10289 20261 403060244 50002





000
SAUS44 KLIX 220452
MTRBVE
METAR KBVE 220451Z AUTO 20006KT 6SM BR CLR 27/25 A3002 RMK AO2
SLP164 T02670250





000
SAUS44 KLIX 220352
MTRBVE
METAR KBVE 220351Z AUTO 14003KT 8SM CLR 27/24 A3001 RMK AO2 SLP162
T02670244





000
SAUS44 KLIX 220253
MTRBVE
METAR KBVE 220251Z AUTO 17005KT 6SM BR CLR 27/25 A3001 RMK AO2
SLP160 T02670250 51006





000
SAUS44 KLIX 220152
MTRBVE
METAR KBVE 220151Z AUTO 16004KT 6SM BR CLR 27/25 A3000 RMK AO2
SLP159 T02670250





000
SAUS44 KLIX 220052
MTRBVE
METAR KBVE 220051Z AUTO 00000KT 7SM FEW050 28/24 A3000 RMK AO2
SLP158 T02830239





000
SAUS44 KLIX 212352
MTRBVE
METAR KBVE 212351Z AUTO 11004KT 8SM CLR 29/23 A2999 RMK AO2 SLP154
T02890233 10306 20283 56007





000
SAUS44 KLIX 212252
MTRBVE
METAR KBVE 212251Z AUTO 11004KT 8SM BKN065 29/23 A2999 RMK AO2
SLP156 T02940233





000
SAUS44 KLIX 212153
MTRBVE
METAR KBVE 212151Z AUTO 09004KT 9SM CLR 30/23 A3000 RMK AO2 SLP158
T03000228





000
SAUS44 KLIX 212052
MTRBVE
METAR KBVE 212051Z AUTO 06004KT 8SM CLR 30/24 A3001 RMK AO2 SLP161
T03000239 58014





000
SAUS44 KLIX 211959
MTRBVE
SPECI KBVE 211958Z AUTO 08005KT 7SM FEW018 SCT028 BKN044 29/25 A3002
RMK AO2 T02890250





000
SAUS44 KLIX 211953
MTRBVE
METAR KBVE 211951Z AUTO 07005KT 7SM SCT020 BKN028 BKN033 29/25 A3003
RMK AO2 SLP167 T02940250





000
SAUS44 KLIX 211934
MTRBVE
SPECI KBVE 211933Z AUTO 06006KT 7SM BKN022 BKN050 29/25 A3003 RMK
AO2 T02890250





000
SAUS44 KLIX 211907
MTRBVE
SPECI KBVE 211906Z AUTO 02005KT 8SM FEW005 SCT060 SCT075 29/24 A3003
RMK AO2 T02940244





000
SAUS44 KLIX 211852
MTRBVE
METAR KBVE 211851Z AUTO 35004KT 8SM FEW036 FEW060 29/24 A3004 RMK
AO2 SLP172 T02890244





000
SAUS44 KLIX 211752
MTRBVE
METAR KBVE 211751Z AUTO VRB05KT 8SM FEW080 FEW090 29/25 A3005 RMK
AO2 SLP175 6//// T02940250 10294 20272





000
SAUS44 KLIX 211652
MTRBVE
METAR KBVE 211651Z AUTO 34008KT 9SM FEW005 28/25 A3005 RMK AO2
SLP175 T02830250





000
SAUS44 KLIX 211644
MTRBVE
SPECI KBVE 211643Z AUTO 33006KT 9SM FEW005 28/25 A3005 RMK AO2
T02830250





000
SAUS44 KLIX 211619
MTRBVE
SPECI KBVE 211618Z AUTO 34007KT 9SM FEW014 SCT033 BKN060 28/26 A3006
RMK AO2 T02780256





000
SAUS44 KLIX 211609
MTRBVE
SPECI KBVE 211608Z AUTO VRB06KT 9SM BKN012 BKN028 OVC045 27/25 A3006
RMK AO2 T02720250





000
SAUS44 KLIX 211552
MTRBVE
METAR KBVE 211551Z AUTO 35005KT 9SM 27/26 A3006 RMK AO2 RAE35 SLP179
T02720256 PNO





    US Dept of Commerce
    National Oceanic and Atmospheric Administration
    National Weather Service
    1325 East West Highway
    Silver Spring, MD 20910
    Page Author: NWS Internet Services Team
Disclaimer
Information Quality
Credits
Glossary
Privacy Policy
Freedom of Information Act (FOIA)
About Us
Career Opportunities